Terminal Aerodrome Forecast
Issued by NWS

Home | Current Version | Previous Version | Text Only | Print | Product List | Glossary Off
Versions: 1 2 3 4 5 6 7 8 9 10 11 12 13 14 15

000
FTUS43 KOAX 311100 RRA
TAFCDR
TAF
KCDR 311142Z 3112/0112 31008KT P6SM -SHRA VCTS SCT060CB BKN100
     FM311500 27005KT P6SM BKN100
     FM312100 26007KT P6SM VCTS OVC100CB
     FM010200 VRB05KT P6SM VCSH SCT150=

USA.gov is the U.S. government's official web portal to all federal, state and local government web resources and services.